Other Surface Observations
Issued by NWS Great Falls, MT

Home | Current Version | Previous Version | Text Only | Print | Product List | Glossary On
Versions: 1 2 3 4 5 6 7 8 9 10 11 12 13 14 15 16 17 18 19 20 21 22 23 24 25 26 27 28 29 30 31 32 33 34 35 36 37 38 39 40 41 42 43 44 45 46 47 48 49 50
000
SXUS55 KTFX 281809
OSOTFX
AREA AWOS OBSERVATIONS
NATIONAL WEATHER SERVICE GREAT FALLS MT
1105 AM MST SAT FEB 28 2015

METAR KPWD 281800Z AUTO 31014KT 5SM M13/M17 A3015 RMK PLENTYWOOD
METAR KPO1 281800Z AUTO 29009G14KT M10/M17 A3021 RMK POPLAR
METAR K1S3 281800Z AUTO 29011G15KT 10SM M07/M13 A3019 RMK FORSYTH
METAR KS71 281800Z AUTO 26011G16KT 10SM M09/M15 A3022 RMK CHINOOK
METAR K6S0 281800Z AUTO 00000KT 10SM M08/M14 A3007 RMK BIG TIMBER
METAR K79S 281800Z AUTO 24006KT 10SM M09/M14 A3024 RMK FORT BENTON
METAR K38S 281800Z AUTO 00000KT 10SM M08/M15 A3009 RMK DEER LODGE
METAR K3U3 281800Z AUTO 00000KT 10SM M09/M16 A3004 RMK ANACONDA
METAR K6S5 281800Z AUTO 35007KT 10SM M04/M15 A3006 RMK HAMILTON
METAR KS59 281800Z AUTO 31003KT 10SM M02/M16 A3020 RMK LIBBY
METAR K88M 281800Z AUTO 00000KT 10SM M03/M16 A3022 RMK EUREKA



USA.gov is the U.S. government's official web portal to all federal, state and local government web resources and services.